Time;durP1;ratioP1;P1;durP2;ratioP2;P2;SDS_P1;SDS_P2;PMS_P1;PMS_P2;Temp;Humidity;BMP_temperature;BMP_pressure;BME280_temperature;BME280_humidity;BME280_pressure;Samples;Min_cycle;Max_cycle;Signal;HPM_P1;HPM_P2
2023/12/30 00:02:10;;;;;;;5.30;0.83;;;7.20;99.90;;;;;;4999724;28;20176;-95
2023/12/30 00:04:36;;;;;;;5.03;0.70;;;7.20;99.90;;;;;;5000484;28;20227;-93
2023/12/30 00:07:02;;;;;;;2.77;0.80;;;7.20;99.90;;;;;;4999433;28;20771;-95
2023/12/30 00:09:31;;;;;;;5.03;0.90;;;7.20;99.90;;;;;;4999897;28;20180;-95
2023/12/30 00:11:57;;;;;;;5.00;1.00;;;7.20;99.90;;;;;;5000303;28;20172;-94
2023/12/30 00:14:23;;;;;;;2.97;0.67;;;7.20;99.90;;;;;;4999460;28;20191;-95
2023/12/30 00:16:49;;;;;;;5.43;1.20;;;7.20;99.90;;;;;;4997750;28;20215;-93
2023/12/30 00:19:14;;;;;;;4.53;0.80;;;7.20;99.90;;;;;;4998359;28;20184;-94
2023/12/30 00:21:40;;;;;;;1.40;0.70;;;7.30;99.90;;;;;;4998305;28;20179;-93
2023/12/30 00:24:08;;;;;;;3.77;0.50;;;7.20;99.90;;;;;;4997661;28;20684;-95
2023/12/30 00:26:35;;;;;;;2.13;0.70;;;7.30;99.90;;;;;;4998242;28;20270;-95
2023/12/30 00:29:01;;;;;;;2.13;0.70;;;7.20;99.90;;;;;;4996986;28;20168;-95
2023/12/30 00:31:29;;;;;;;2.70;0.80;;;7.30;99.90;;;;;;4997644;28;20315;-95
2023/12/30 00:33:59;;;;;;;2.47;0.70;;;7.30;99.90;;;;;;4996587;28;20176;-95
2023/12/30 00:36:26;;;;;;;4.27;0.70;;;7.30;99.90;;;;;;4995360;28;20203;-93
2023/12/30 00:38:55;;;;;;;4.23;0.80;;;7.30;99.90;;;;;;4997008;28;20179;-93
2023/12/30 00:41:22;;;;;;;1.50;0.50;;;7.30;99.90;;;;;;4995465;28;20172;-94
2023/12/30 00:43:48;;;;;;;2.43;0.63;;;7.30;99.90;;;;;;4994749;28;20298;-93
2023/12/30 00:46:14;;;;;;;3.93;1.40;;;7.30;99.90;;;;;;4995782;28;20219;-95
2023/12/30 00:48:40;;;;;;;3.07;0.93;;;7.30;99.90;;;;;;4994637;28;20628;-93
2023/12/30 00:51:06;;;;;;;4.10;0.87;;;7.40;99.90;;;;;;4994654;28;20172;-95
2023/12/30 00:53:32;;;;;;;2.97;0.67;;;7.30;99.90;;;;;;4995015;28;20195;-95
2023/12/30 00:55:58;;;;;;;1.80;0.67;;;7.40;99.90;;;;;;4995007;28;20211;-93
2023/12/30 00:58:24;;;;;;;3.40;0.97;;;7.40;99.90;;;;;;4994993;28;20172;-93
2023/12/30 01:00:51;;;;;;;3.57;0.70;;;7.30;99.90;;;;;;4995251;28;20176;-94
2023/12/30 01:03:17;;;;;;;3.00;0.53;;;7.30;99.90;;;;;;5012997;28;20223;-94
2023/12/30 01:05:44;;;;;;;2.30;0.73;;;7.30;99.90;;;;;;5014856;28;20211;-94
2023/12/30 01:08:10;;;;;;;2.50;0.77;;;7.20;99.90;;;;;;5014710;28;20313;-94
2023/12/30 01:10:36;;;;;;;2.80;0.80;;;7.30;99.90;;;;;;5014766;28;20638;-95
2023/12/30 01:13:03;;;;;;;3.50;1.00;;;7.20;99.90;;;;;;5014301;28;20706;-92
2023/12/30 01:15:29;;;;;;;1.37;0.97;;;7.10;99.90;;;;;;5014070;28;20183;-96
2023/12/30 01:17:55;;;;;;;4.20;0.90;;;7.20;99.90;;;;;;5014462;28;20278;-95
2023/12/30 01:20:21;;;;;;;1.73;0.87;;;7.20;99.90;;;;;;5014305;28;20175;-95
2023/12/30 01:22:47;;;;;;;4.20;1.47;;;7.10;99.90;;;;;;5013599;28;20199;-95
2023/12/30 01:25:12;;;;;;;1.80;1.00;;;7.10;99.90;;;;;;5013425;28;20178;-94
2023/12/30 01:27:39;;;;;;;5.53;1.30;;;7.10;99.90;;;;;;5013122;28;20575;-94
2023/12/30 01:30:06;;;;;;;2.33;0.87;;;7.10;99.90;;;;;;5013113;28;20171;-95
2023/12/30 01:32:32;;;;;;;2.77;0.70;;;7.10;99.90;;;;;;5013225;28;20639;-96
2023/12/30 01:35:01;;;;;;;2.90;0.80;;;7.20;99.90;;;;;;5013325;28;20199;-93
2023/12/30 01:37:27;;;;;;;3.30;0.80;;;7.20;99.90;;;;;;4974118;28;20204;-95
2023/12/30 01:39:53;;;;;;;1.23;0.60;;;7.20;99.90;;;;;;4977440;28;20176;-94
2023/12/30 01:42:19;;;;;;;1.40;0.43;;;7.20;99.90;;;;;;4978034;28;20176;-93
2023/12/30 01:44:45;;;;;;;3.80;0.60;;;7.20;99.90;;;;;;4978472;28;20640;-95
2023/12/30 01:47:10;;;;;;;1.10;0.77;;;7.20;99.90;;;;;;4980231;28;20200;-95
2023/12/30 01:49:37;;;;;;;0.80;0.40;;;7.20;99.90;;;;;;4997437;28;20168;-94
2023/12/30 01:52:03;;;;;;;0.93;0.40;;;7.20;99.90;;;;;;4997600;28;20168;-96
2023/12/30 01:54:31;;;;;;;0.77;0.40;;;7.20;99.90;;;;;;4996969;28;20266;-92
2023/12/30 01:56:57;;;;;;;1.93;0.40;;;7.10;99.90;;;;;;4997392;28;20199;-95
2023/12/30 01:59:24;;;;;;;0.97;0.30;;;7.20;99.90;;;;;;4997624;28;20273;-94
2023/12/30 02:01:50;;;;;;;0.63;0.43;;;7.10;99.90;;;;;;4997230;28;20175;-95
2023/12/30 02:04:17;;;;;;;1.23;0.70;;;7.10;99.90;;;;;;4999209;28;20236;-93
2023/12/30 02:06:43;;;;;;;0.73;0.50;;;7.00;99.90;;;;;;5016714;28;20213;-94
2023/12/30 02:09:09;;;;;;;1.37;0.40;;;7.00;99.90;;;;;;5017203;28;20214;-95
2023/12/30 02:11:35;;;;;;;5.30;0.73;;;7.00;99.90;;;;;;5016747;28;20245;-93
2023/12/30 02:14:01;;;;;;;0.80;0.43;;;7.00;99.90;;;;;;5016449;28;20639;-94
2023/12/30 02:16:27;;;;;;;0.77;0.53;;;7.00;99.90;;;;;;5016361;28;20203;-95
2023/12/30 02:18:53;;;;;;;0.73;0.33;;;7.00;99.90;;;;;;5016660;28;20222;-94
2023/12/30 02:21:19;;;;;;;1.27;0.50;;;6.90;99.90;;;;;;5016181;28;20194;-96
2023/12/30 02:23:52;;;;;;;1.07;0.50;;;7.00;99.90;;;;;;5016015;28;20199;-95
2023/12/30 02:26:18;;;;;;;0.73;0.30;;;7.00;99.90;;;;;;5016375;28;20201;-96
2023/12/30 02:28:44;;;;;;;0.63;0.50;;;7.00;99.90;;;;;;5016135;28;20175;-94
2023/12/30 02:31:09;;;;;;;1.53;0.47;;;7.00;99.90;;;;;;5015871;28;20174;-93
2023/12/30 02:33:35;;;;;;;1.70;0.50;;;7.00;99.90;;;;;;5003113;28;20238;-94
2023/12/30 02:36:01;;;;;;;2.30;0.40;;;7.00;99.90;;;;;;4996207;28;20204;-95
2023/12/30 02:38:27;;;;;;;1.07;0.50;;;7.00;99.90;;;;;;4996807;28;20180;-94
2023/12/30 02:40:53;;;;;;;1.80;0.40;;;7.00;99.90;;;;;;4996299;28;20176;-95
2023/12/30 02:43:19;;;;;;;2.03;0.50;;;6.90;99.90;;;;;;5006697;28;20555;-96
2023/12/30 02:45:44;;;;;;;0.97;0.30;;;6.90;99.90;;;;;;5015982;28;20217;-93
2023/12/30 02:48:10;;;;;;;1.10;0.40;;;6.90;99.90;;;;;;5015638;28;20635;-94
2023/12/30 02:50:36;;;;;;;0.30;0.30;;;6.90;99.90;;;;;;5002311;28;20180;-95
2023/12/30 02:53:02;;;;;;;1.57;0.40;;;6.80;99.90;;;;;;4996006;28;20270;-95
2023/12/30 02:55:28;;;;;;;1.70;0.40;;;6.80;99.90;;;;;;4995788;28;20175;-94
2023/12/30 02:57:54;;;;;;;2.63;0.60;;;6.80;99.90;;;;;;4995728;28;20684;-95
2023/12/30 03:00:20;;;;;;;0.57;0.33;;;6.80;99.90;;;;;;4996071;28;20178;-95
2023/12/30 03:02:46;;;;;;;1.57;0.50;;;6.70;99.90;;;;;;5002106;28;20202;-92
2023/12/30 03:05:12;;;;;;;1.10;0.40;;;6.70;99.90;;;;;;5015360;28;20206;-94
2023/12/30 03:07:38;;;;;;;1.80;0.43;;;6.70;99.90;;;;;;5015486;28;20194;-93
2023/12/30 03:10:05;;;;;;;0.30;0.30;;;6.70;99.90;;;;;;5015154;28;20180;-93
2023/12/30 03:12:31;;;;;;;2.70;0.60;;;6.70;99.90;;;;;;5011390;28;20211;-93
2023/12/30 03:14:57;;;;;;;2.93;0.70;;;6.70;99.90;;;;;;4996060;28;20735;-94
2023/12/30 03:17:22;;;;;;;3.70;0.60;;;6.70;99.90;;;;;;4995498;28;20606;-93
2023/12/30 03:19:48;;;;;;;3.47;0.67;;;6.70;99.90;;;;;;5002068;28;20217;-94
2023/12/30 03:22:14;;;;;;;2.73;0.60;;;6.70;99.90;;;;;;5014899;28;20171;-93
2023/12/30 03:24:40;;;;;;;1.57;0.57;;;6.80;99.90;;;;;;5009571;28;20200;-94
2023/12/30 03:27:06;;;;;;;1.93;0.50;;;6.70;99.90;;;;;;4995420;28;20234;-94
2023/12/30 03:29:32;;;;;;;3.27;0.87;;;6.70;99.90;;;;;;4995403;28;20188;-94
2023/12/30 03:31:58;;;;;;;3.50;0.70;;;6.80;99.90;;;;;;4995238;28;20199;-94
2023/12/30 03:34:24;;;;;;;3.87;0.90;;;6.70;99.90;;;;;;4995124;28;20176;-94
2023/12/30 03:36:49;;;;;;;4.23;0.80;;;6.70;99.90;;;;;;4994975;28;20207;-93
2023/12/30 03:39:15;;;;;;;4.80;0.70;;;6.70;99.90;;;;;;4995154;28;20204;-94
2023/12/30 03:41:41;;;;;;;4.43;0.77;;;6.70;99.90;;;;;;4995322;28;20207;-94
2023/12/30 03:44:07;;;;;;;2.50;0.63;;;6.70;99.90;;;;;;4995569;28;20212;-92
2023/12/30 03:46:40;;;;;;;2.57;0.67;;;6.70;99.90;;;;;;4996265;28;20200;-93
2023/12/30 03:49:07;;;;;;;5.07;0.90;;;6.80;99.90;;;;;;4995512;28;20579;-94
2023/12/30 03:51:33;;;;;;;2.73;0.73;;;6.80;99.90;;;;;;5008163;28;20226;-94
2023/12/30 03:53:59;;;;;;;3.43;0.60;;;6.70;99.90;;;;;;5014973;28;20595;-93
2023/12/30 03:56:25;;;;;;;3.07;0.73;;;6.80;99.90;;;;;;5014714;28;20215;-91
2023/12/30 03:58:52;;;;;;;3.07;1.20;;;6.80;99.90;;;;;;5014560;28;20184;-95
2023/12/30 04:01:18;;;;;;;5.30;0.77;;;6.80;99.90;;;;;;5320106;22;20233;-81
2023/12/30 04:03:47;;;;;;;1.70;0.70;;;6.80;99.90;;;;;;5033298;28;20210;-82
2023/12/30 04:06:19;;;;;;;4.27;0.90;;;6.80;99.90;;;;;;5032884;28;20554;-82
2023/12/30 04:08:45;;;;;;;4.70;0.80;;;6.70;99.90;;;;;;5033304;28;20190;-82
2023/12/30 04:11:11;;;;;;;4.70;0.77;;;6.60;99.90;;;;;;5033105;28;20189;-82
2023/12/30 04:13:37;;;;;;;2.00;0.70;;;6.60;99.90;;;;;;5033292;28;20218;-82
2023/12/30 04:16:03;;;;;;;2.60;0.90;;;6.60;99.90;;;;;;5034239;28;20515;-81
2023/12/30 04:18:29;;;;;;;4.10;1.20;;;6.60;99.90;;;;;;5034473;28;20639;-81
2023/12/30 04:20:55;;;;;;;1.87;0.60;;;6.60;99.90;;;;;;5032513;28;20252;-83
2023/12/30 04:23:20;;;;;;;3.60;0.67;;;6.60;99.90;;;;;;5033040;28;20610;-81
2023/12/30 04:25:46;;;;;;;5.00;1.03;;;6.60;99.90;;;;;;5034245;28;20174;-81
2023/12/30 04:28:12;;;;;;;3.57;0.83;;;6.60;99.90;;;;;;5032882;28;20186;-82
2023/12/30 04:30:38;;;;;;;2.07;0.63;;;6.60;99.90;;;;;;5032774;28;20186;-82
2023/12/30 04:33:04;;;;;;;4.80;0.90;;;6.60;99.90;;;;;;5032667;28;20621;-82
2023/12/30 04:35:30;;;;;;;4.93;0.97;;;6.60;99.90;;;;;;5032911;28;20695;-82
2023/12/30 04:37:56;;;;;;;1.87;0.80;;;6.50;99.90;;;;;;5032822;28;20183;-83
2023/12/30 04:40:22;;;;;;;5.03;1.07;;;6.50;99.90;;;;;;5032690;28;20193;-82
2023/12/30 04:42:47;;;;;;;3.77;0.63;;;6.50;99.90;;;;;;5032815;28;20229;-82
2023/12/30 04:45:13;;;;;;;5.33;0.90;;;6.50;99.90;;;;;;5032914;28;20186;-82
2023/12/30 04:47:39;;;;;;;3.07;1.03;;;6.40;99.90;;;;;;5032301;28;20588;-82
2023/12/30 04:50:06;;;;;;;2.73;0.83;;;6.40;99.90;;;;;;5032670;28;20198;-82
2023/12/30 04:52:31;;;;;;;3.60;0.70;;;6.40;99.90;;;;;;5034015;28;20201;-81
2023/12/30 04:54:57;;;;;;;5.67;1.00;;;6.30;99.90;;;;;;5032748;28;20617;-82
2023/12/30 04:57:24;;;;;;;3.00;0.90;;;6.30;99.90;;;;;;5032388;28;20186;-82
2023/12/30 04:59:50;;;;;;;5.13;0.97;;;6.30;99.90;;;;;;5032617;28;20186;-83
2023/12/30 05:02:15;;;;;;;6.77;1.10;;;6.20;99.90;;;;;;5033301;28;20233;-81
2023/12/30 05:04:43;;;;;;;3.33;0.63;;;6.20;99.90;;;;;;5032543;28;20202;-81
2023/12/30 05:07:09;;;;;;;3.90;0.83;;;6.20;99.90;;;;;;5031920;28;20179;-80
2023/12/30 05:09:35;;;;;;;3.73;1.07;;;6.20;99.90;;;;;;5033656;28;20248;-82
2023/12/30 05:12:01;;;;;;;4.77;0.90;;;6.20;99.90;;;;;;5032025;28;20214;-82
2023/12/30 05:14:27;;;;;;;4.83;0.83;;;6.10;99.90;;;;;;5030526;28;20523;-82
2023/12/30 05:16:53;;;;;;;7.83;1.20;;;6.10;99.90;;;;;;5032049;28;20716;-82
2023/12/30 05:19:19;;;;;;;4.27;0.90;;;6.10;99.90;;;;;;5032313;28;20189;-82
2023/12/30 05:21:53;;;;;;;3.00;0.90;;;6.10;99.90;;;;;;5032445;28;20217;-82
2023/12/30 05:24:19;;;;;;;4.77;0.97;;;6.10;99.90;;;;;;5032113;28;20297;-82
2023/12/30 05:26:44;;;;;;;6.87;0.90;;;6.10;99.90;;;;;;5031699;28;20598;-81
2023/12/30 05:29:10;;;;;;;2.97;0.87;;;6.10;99.90;;;;;;5033535;28;20233;-82
2023/12/30 05:31:36;;;;;;;4.90;1.00;;;6.10;99.90;;;;;;5032207;28;20189;-82
2023/12/30 05:34:04;;;;;;;5.40;0.80;;;6.10;99.90;;;;;;5032182;28;20221;-82
2023/12/30 05:36:29;;;;;;;6.93;1.40;;;6.10;99.90;;;;;;5033326;28;20182;-81
2023/12/30 05:38:55;;;;;;;3.70;0.90;;;6.10;99.90;;;;;;5032023;28;20255;-82
2023/12/30 05:41:21;;;;;;;3.60;0.97;;;6.10;99.90;;;;;;5032149;28;20374;-82
2023/12/30 05:43:47;;;;;;;5.37;1.00;;;6.10;99.90;;;;;;5025203;28;20238;-82
2023/12/30 05:46:16;;;;;;;6.30;1.07;;;6.10;99.90;;;;;;5030033;28;20265;-82
2023/12/30 05:48:43;;;;;;;5.97;1.23;;;6.20;99.90;;;;;;5033177;28;20183;-82
2023/12/30 05:51:09;;;;;;;5.87;1.20;;;6.20;99.90;;;;;;5031868;28;20179;-82
2023/12/30 05:53:35;;;;;;;6.03;1.03;;;6.30;99.90;;;;;;5033228;28;20566;-82
2023/12/30 05:56:01;;;;;;;5.03;1.33;;;6.30;99.90;;;;;;5033287;28;20237;-81
2023/12/30 05:58:28;;;;;;;8.50;1.30;;;6.20;99.90;;;;;;5033241;28;20218;-82
2023/12/30 06:00:54;;;;;;;4.70;1.13;;;6.20;99.90;;;;;;5032850;28;20640;-82
2023/12/30 06:03:20;;;;;;;6.03;1.50;;;6.20;99.90;;;;;;5031889;28;20217;-82
2023/12/30 06:05:46;;;;;;;1.73;0.70;;;6.20;99.90;;;;;;5033153;28;20189;-82
2023/12/30 06:08:12;;;;;;;5.60;0.90;;;6.20;99.90;;;;;;5031630;28;20187;-82
2023/12/30 06:10:37;;;;;;;5.87;1.30;;;6.10;99.90;;;;;;5032008;28;20178;-82
2023/12/30 06:13:03;;;;;;;6.40;1.10;;;6.10;99.90;;;;;;5031815;28;20183;-81
2023/12/30 06:15:29;;;;;;;5.17;0.93;;;6.10;99.90;;;;;;5031291;28;20183;-81
2023/12/30 06:17:55;;;;;;;14.00;1.43;;;6.20;99.90;;;;;;5031195;28;20182;-82
2023/12/30 06:20:21;;;;;;;4.23;1.03;;;6.10;99.90;;;;;;5029977;28;20658;-82
2023/12/30 06:22:47;;;;;;;7.37;1.50;;;6.10;99.90;;;;;;5030400;28;20269;-82
2023/12/30 06:25:13;;;;;;;10.13;1.73;;;6.30;99.90;;;;;;5032613;28;20277;-82
2023/12/30 06:27:38;;;;;;;10.80;1.73;;;6.20;99.90;;;;;;5036534;28;20167;-81
2023/12/30 06:30:05;;;;;;;5.77;1.00;;;6.20;99.90;;;;;;5036130;28;20193;-84
2023/12/30 06:32:31;;;;;;;6.53;1.23;;;6.20;99.90;;;;;;5033485;28;20641;-82
2023/12/30 06:34:57;;;;;;;5.00;1.30;;;6.20;99.90;;;;;;5035065;28;20186;-82
2023/12/30 06:37:22;;;;;;;5.37;1.10;;;6.30;99.90;;;;;;5033426;28;20185;-82
2023/12/30 06:39:48;;;;;;;4.37;1.53;;;6.30;99.90;;;;;;5035099;28;20181;-83
2023/12/30 06:42:14;;;;;;;10.40;1.33;;;6.30;99.90;;;;;;5033594;28;20558;-82
2023/12/30 06:44:40;;;;;;;9.73;1.47;;;6.30;99.90;;;;;;5033751;28;20209;-82
2023/12/30 06:47:06;;;;;;;7.67;1.23;;;6.30;99.90;;;;;;5034740;28;20205;-82
2023/12/30 06:49:32;;;;;;;11.63;1.50;;;6.40;99.90;;;;;;5035002;28;20185;-82
2023/12/30 06:51:58;;;;;;;4.80;1.20;;;6.30;99.90;;;;;;5036283;28;20175;-82
2023/12/30 06:54:24;;;;;;;11.23;1.87;;;6.30;99.90;;;;;;5034828;28;20189;-81
2023/12/30 06:56:49;;;;;;;5.90;1.17;;;6.20;99.90;;;;;;5036054;28;20261;-82
2023/12/30 06:59:17;;;;;;;6.73;1.50;;;6.20;99.90;;;;;;5035114;28;20545;-82
2023/12/30 07:01:42;;;;;;;5.13;1.10;;;6.30;99.90;;;;;;5034240;28;20234;-82
2023/12/30 07:04:09;;;;;;;5.00;1.20;;;6.30;99.90;;;;;;5035772;28;20213;-83
2023/12/30 07:06:35;;;;;;;6.00;1.20;;;6.20;99.90;;;;;;5034503;28;20193;-82
2023/12/30 07:09:01;;;;;;;8.03;2.07;;;6.20;99.90;;;;;;5034688;28;20536;-82
2023/12/30 07:11:26;;;;;;;8.83;1.87;;;6.20;99.90;;;;;;5035985;28;20248;-82
2023/12/30 07:13:52;;;;;;;8.23;1.60;;;6.20;99.90;;;;;;5034586;28;20189;-81
2023/12/30 07:16:18;;;;;;;11.27;1.63;;;6.20;99.90;;;;;;5034107;28;20182;-82
2023/12/30 07:18:44;;;;;;;7.00;1.30;;;6.20;99.90;;;;;;5035650;28;20175;-82
2023/12/30 07:21:10;;;;;;;5.97;1.63;;;6.20;99.90;;;;;;5034230;28;20192;-82
2023/12/30 07:23:36;;;;;;;9.77;1.80;;;6.20;99.90;;;;;;5035685;28;20655;-82
2023/12/30 07:26:01;;;;;;;7.90;1.60;;;6.20;99.90;;;;;;5034263;28;20183;-82
2023/12/30 07:28:29;;;;;;;7.70;1.93;;;6.10;99.90;;;;;;5034144;28;20681;-84
2023/12/30 07:30:55;;;;;;;8.10;1.40;;;6.10;99.90;;;;;;5034247;28;20637;-82
2023/12/30 07:33:21;;;;;;;7.43;1.50;;;6.20;99.90;;;;;;5033698;28;20183;-82
2023/12/30 07:35:47;;;;;;;6.53;1.40;;;6.20;99.90;;;;;;5034605;28;20262;-82
2023/12/30 07:38:13;;;;;;;5.00;1.40;;;6.10;99.90;;;;;;5034895;28;20290;-82
2023/12/30 07:40:39;;;;;;;4.50;1.43;;;6.20;99.90;;;;;;5034058;28;20265;-83
2023/12/30 07:43:05;;;;;;;8.17;1.70;;;6.10;99.90;;;;;;5033584;28;20218;-82
2023/12/30 07:45:30;;;;;;;5.17;1.40;;;6.10;99.90;;;;;;5034023;28;20236;-82
2023/12/30 07:47:56;;;;;;;6.07;1.83;;;6.10;99.90;;;;;;5033610;28;20560;-82
2023/12/30 07:50:22;;;;;;;9.47;1.80;;;6.00;99.90;;;;;;5034538;28;20191;-82
2023/12/30 07:52:48;;;;;;;8.50;1.63;;;6.10;99.90;;;;;;5032957;28;20174;-81
2023/12/30 07:55:14;;;;;;;6.73;1.30;;;6.10;99.90;;;;;;5034849;28;20253;-82
2023/12/30 07:57:39;;;;;;;10.97;1.70;;;6.20;99.90;;;;;;5033664;28;20182;-82
2023/12/30 08:00:06;;;;;;;8.10;1.60;;;6.10;99.90;;;;;;5033937;28;20194;-82
2023/12/30 08:02:32;;;;;;;6.53;1.30;;;6.10;99.90;;;;;;5034370;28;20269;-81
2023/12/30 08:04:59;;;;;;;8.00;1.50;;;6.10;99.90;;;;;;5033577;28;20186;-82
2023/12/30 08:07:25;;;;;;;11.43;1.63;;;6.10;99.90;;;;;;5032909;28;20194;-81
2023/12/30 08:09:51;;;;;;;5.00;1.13;;;6.20;99.90;;;;;;5034805;28;20178;-82
2023/12/30 08:12:17;;;;;;;10.17;2.10;;;6.20;99.90;;;;;;5033215;28;20186;-81
2023/12/30 08:14:43;;;;;;;5.50;1.50;;;6.20;99.90;;;;;;5033215;28;20190;-82
2023/12/30 08:17:08;;;;;;;7.33;1.57;;;6.20;99.90;;;;;;5032549;28;20273;-81
2023/12/30 08:19:34;;;;;;;7.50;1.33;;;6.30;99.90;;;;;;5032162;28;20336;-81
2023/12/30 08:22:00;;;;;;;5.80;1.30;;;6.30;99.90;;;;;;5032998;28;20624;-82
2023/12/30 08:24:28;;;;;;;6.47;1.57;;;6.30;99.90;;;;;;5032209;28;20225;-82
2023/12/30 08:26:54;;;;;;;9.27;1.37;;;6.40;99.90;;;;;;5031566;28;20178;-81
2023/12/30 08:29:20;;;;;;;6.63;1.23;;;6.30;99.90;;;;;;5031777;28;20175;-81
2023/12/30 08:31:46;;;;;;;7.77;1.57;;;6.30;99.90;;;;;;5032498;28;20214;-82
2023/12/30 08:34:12;;;;;;;5.83;1.83;;;6.40;99.90;;;;;;5031117;28;20280;-84
2023/12/30 08:36:38;;;;;;;7.13;1.50;;;6.40;99.90;;;;;;5031786;28;20182;-82
2023/12/30 08:39:04;;;;;;;4.23;1.53;;;6.30;99.90;;;;;;5031342;28;20189;-81
2023/12/30 08:41:30;;;;;;;4.00;1.40;;;6.30;99.90;;;;;;5031519;28;20349;-82
2023/12/30 08:43:56;;;;;;;8.03;1.80;;;6.30;99.90;;;;;;5031127;28;20269;-82
2023/12/30 08:46:22;;;;;;;7.90;2.00;;;6.30;99.90;;;;;;5031519;28;20190;-82
2023/12/30 08:48:48;;;;;;;6.83;1.60;;;6.40;99.90;;;;;;5032995;28;20186;-84
2023/12/30 08:51:15;;;;;;;4.43;1.50;;;6.40;99.90;;;;;;5032503;28;20193;-82
2023/12/30 08:53:40;;;;;;;7.93;2.20;;;6.50;99.90;;;;;;5032765;28;20640;-81
2023/12/30 08:56:06;;;;;;;10.97;2.20;;;6.50;99.90;;;;;;5032525;28;20182;-83
2023/12/30 08:58:32;;;;;;;7.87;2.00;;;6.50;99.90;;;;;;5033878;28;20179;-81
2023/12/30 09:00:59;;;;;;;6.93;1.40;;;6.50;99.90;;;;;;5033544;28;20234;-80
2023/12/30 09:03:24;;;;;;;8.53;1.57;;;6.50;99.90;;;;;;5033408;28;20718;-80
2023/12/30 09:05:50;;;;;;;7.10;1.73;;;6.60;99.90;;;;;;5032534;28;20194;-80
2023/12/30 09:08:16;;;;;;;7.50;2.20;;;6.60;99.90;;;;;;5032429;28;20183;-80
2023/12/30 09:10:42;;;;;;;10.83;2.40;;;6.60;99.90;;;;;;5031865;28;20609;-80
2023/12/30 09:13:08;;;;;;;8.53;1.87;;;6.60;99.90;;;;;;5030860;28;20190;-80
2023/12/30 09:15:34;;;;;;;6.80;1.90;;;6.60;99.90;;;;;;5031790;28;20183;-80
2023/12/30 09:18:00;;;;;;;11.20;1.90;;;6.60;99.90;;;;;;5031464;28;20190;-81
2023/12/30 09:20:26;;;;;;;4.90;1.40;;;6.70;99.90;;;;;;5022219;28;20671;-81
2023/12/30 09:22:52;;;;;;;7.70;2.20;;;6.70;99.90;;;;;;5029131;28;20174;-80
2023/12/30 09:25:18;;;;;;;9.57;1.43;;;6.70;99.90;;;;;;5030923;28;20206;-80
2023/12/30 09:27:45;;;;;;;8.47;1.87;;;6.80;99.90;;;;;;5013976;28;20217;-81
2023/12/30 09:30:11;;;;;;;6.23;1.73;;;6.80;99.90;;;;;;5030469;28;20186;-80
2023/12/30 09:32:37;;;;;;;7.70;2.03;;;6.80;99.90;;;;;;5031566;28;20189;-81
2023/12/30 09:35:03;;;;;;;6.37;1.50;;;6.80;99.90;;;;;;5030026;28;20186;-81
2023/12/30 09:37:29;;;;;;;10.13;1.97;;;6.80;99.90;;;;;;5031933;28;20179;-81
2023/12/30 09:39:55;;;;;;;8.27;2.00;;;6.80;99.90;;;;;;5030573;28;20251;-80
2023/12/30 09:42:22;;;;;;;6.67;2.00;;;6.80;99.90;;;;;;5030803;28;20269;-82
2023/12/30 09:44:48;;;;;;;7.87;1.73;;;6.80;99.90;;;;;;5031437;28;20221;-81
2023/12/30 09:47:14;;;;;;;5.27;1.77;;;6.80;99.90;;;;;;5030732;28;20179;-81
2023/12/30 09:49:40;;;;;;;8.20;1.77;;;6.90;99.90;;;;;;5030639;28;20183;-81
2023/12/30 09:52:07;;;;;;;5.93;2.03;;;6.90;99.90;;;;;;5031969;28;20170;-81
2023/12/30 09:54:33;;;;;;;11.07;2.10;;;7.00;99.90;;;;;;5030376;28;20249;-82
2023/12/30 09:57:01;;;;;;;8.00;1.67;;;7.00;99.90;;;;;;5030600;28;20182;-79
2023/12/30 09:59:30;;;;;;;7.63;1.60;;;7.00;99.90;;;;;;5030603;28;20207;-81
2023/12/30 10:01:56;;;;;;;6.60;1.80;;;7.00;99.90;;;;;;5034092;28;20244;-81
2023/12/30 10:04:23;;;;;;;6.13;1.40;;;7.10;99.90;;;;;;5035447;28;20212;-81
2023/12/30 10:06:54;;;;;;;6.30;1.70;;;7.10;99.90;;;;;;5035642;28;20233;-81
2023/12/30 10:09:22;;;;;;;5.50;1.70;;;7.20;99.90;;;;;;5035144;28;20186;-81
2023/12/30 10:11:49;;;;;;;4.83;1.67;;;7.20;99.90;;;;;;5034640;28;20183;-81
2023/12/30 10:14:15;;;;;;;4.47;1.50;;;7.20;99.90;;;;;;5035065;28;20174;-81
2023/12/30 10:16:41;;;;;;;8.77;2.30;;;7.30;99.90;;;;;;5035135;28;20266;-83
2023/12/30 10:19:11;;;;;;;5.53;1.57;;;7.40;99.90;;;;;;5034268;28;20211;-81
2023/12/30 10:21:37;;;;;;;8.40;1.93;;;7.40;99.90;;;;;;5035151;28;20241;-80
2023/12/30 10:24:04;;;;;;;6.77;1.53;;;7.50;99.90;;;;;;5034958;28;20568;-81
2023/12/30 10:26:33;;;;;;;5.83;1.10;;;7.50;99.90;;;;;;5030197;28;20186;-80
2023/12/30 10:29:00;;;;;;;9.57;1.47;;;7.50;99.90;;;;;;5034141;28;20190;-80
2023/12/30 10:31:25;;;;;;;7.00;1.30;;;7.50;99.90;;;;;;5033284;28;20195;-81
2023/12/30 10:33:53;;;;;;;6.10;1.50;;;7.60;99.90;;;;;;5033893;28;20186;-81
2023/12/30 10:36:19;;;;;;;6.60;1.83;;;7.60;99.90;;;;;;5033390;28;20228;-81
2023/12/30 10:38:46;;;;;;;6.70;1.50;;;7.60;99.90;;;;;;5035239;28;20194;-81
2023/12/30 10:41:15;;;;;;;6.27;1.60;;;7.60;99.90;;;;;;5033129;28;20178;-81
2023/12/30 10:43:41;;;;;;;11.40;2.07;;;7.60;99.90;;;;;;5033786;28;20669;-81
2023/12/30 10:46:12;;;;;;;9.27;1.67;;;7.60;99.90;;;;;;5033761;28;20182;-81
2023/12/30 10:49:03;;;;;;;9.83;2.03;;;7.60;99.90;;;;;;5033837;28;20183;-81
2023/12/30 10:51:32;;;;;;;6.60;1.67;;;7.60;99.90;;;;;;5033508;28;20248;-81
2023/12/30 10:54:05;;;;;;;8.10;1.50;;;7.60;99.90;;;;;;5034273;28;20229;-83
2023/12/30 10:56:41;;;;;;;7.90;2.30;;;7.60;99.90;;;;;;5035611;28;20174;-81
2023/12/30 10:59:07;;;;;;;6.13;1.50;;;7.60;99.90;;;;;;5034574;28;20182;-80
2023/12/30 11:01:34;;;;;;;8.63;1.57;;;7.60;99.90;;;;;;5034204;28;20306;-81
2023/12/30 11:04:11;;;;;;;6.37;1.60;;;7.60;99.90;;;;;;5028157;28;20281;-80
2023/12/30 11:06:48;;;;;;;9.10;1.83;;;7.60;99.90;;;;;;5031702;28;20249;-81
2023/12/30 11:09:14;;;;;;;6.87;1.33;;;7.70;99.90;;;;;;5034106;28;20182;-81
2023/12/30 11:11:52;;;;;;;5.40;1.23;;;7.70;99.90;;;;;;5034077;28;20195;-81
2023/12/30 11:14:21;;;;;;;6.40;1.60;;;7.80;99.90;;;;;;5034018;28;20643;-81
2023/12/30 11:16:51;;;;;;;7.97;1.30;;;7.80;99.90;;;;;;5033760;28;20240;-81
2023/12/30 11:19:31;;;;;;;7.87;1.60;;;7.80;99.90;;;;;;5033884;28;20175;-81
2023/12/30 11:22:01;;;;;;;12.27;1.70;;;7.90;99.90;;;;;;5033985;28;20186;-81
2023/12/30 11:24:27;;;;;;;7.85;1.58;;;7.90;99.90;;;;;;5035393;28;20277;-81
2023/12/30 11:26:54;;;;;;;7.75;1.73;;;8.00;99.90;;;;;;5033682;28;20186;-81
2023/12/30 11:29:25;;;;;;;9.30;1.50;;;8.10;99.90;;;;;;5035200;28;20236;-81
2023/12/30 11:31:52;;;;;;;5.90;1.40;;;8.20;99.90;;;;;;5033442;28;20665;-80
2023/12/30 11:34:19;;;;;;;6.03;1.87;;;8.10;99.90;;;;;;5035045;28;20238;-82
2023/12/30 11:36:46;;;;;;;7.63;1.55;;;8.10;99.90;;;;;;5033785;28;20183;-81
2023/12/30 11:39:43;;;;;;;6.20;1.47;;;8.10;99.90;;;;;;5033491;28;20179;-81
2023/12/30 11:42:09;;;;;;;4.27;1.30;;;8.10;99.90;;;;;;5017916;28;20205;-81
2023/12/30 11:44:35;;;;;;;6.25;1.77;;;8.20;99.90;;;;;;5033578;28;20222;-81
2023/12/30 11:47:01;;;;;;;4.30;1.27;;;8.30;99.90;;;;;;5034575;28;20236;-81
2023/12/30 11:49:28;;;;;;;6.43;1.92;;;8.20;99.90;;;;;;5035386;28;20182;-82
2023/12/30 11:52:13;;;;;;;7.90;1.70;;;8.20;99.90;;;;;;5034041;28;20183;-80
2023/12/30 11:54:39;;;;;;;6.07;1.67;;;8.20;99.90;;;;;;5035319;28;20178;-82
2023/12/30 11:57:09;;;;;;;5.80;1.55;;;8.20;99.90;;;;;;5033694;28;20632;-82
2023/12/30 11:59:35;;;;;;;7.93;1.63;;;8.30;99.90;;;;;;5034189;28;20260;-82
2023/12/30 12:02:09;;;;;;;6.88;1.58;;;8.30;99.90;;;;;;5033076;28;20249;-82
2023/12/30 12:04:35;;;;;;;5.13;1.77;;;8.40;99.90;;;;;;5033506;28;20261;-82
2023/12/30 12:07:01;;;;;;;4.70;1.45;;;8.30;99.90;;;;;;5034689;28;20178;-82
2023/12/30 12:09:29;;;;;;;6.57;1.33;;;8.40;99.90;;;;;;5034777;28;20194;-82
2023/12/30 12:11:55;;;;;;;5.65;1.75;;;8.30;99.90;;;;;;5033292;28;20237;-82
2023/12/30 12:14:20;;;;;;;5.47;1.77;;;8.40;99.90;;;;;;5034623;28;20194;-82
2023/12/30 12:16:46;;;;;;;8.75;1.83;;;8.30;99.90;;;;;;5032945;28;20240;-81
2023/12/30 12:19:14;;;;;;;5.75;1.80;;;8.30;99.90;;;;;;5033305;28;20186;-81
2023/12/30 12:21:40;;;;;;;9.00;1.75;;;8.20;99.90;;;;;;5033327;28;20210;-82
2023/12/30 12:24:06;;;;;;;9.63;1.95;;;8.10;99.90;;;;;;5032690;28;20214;-81
2023/12/30 12:26:32;;;;;;;7.22;1.92;;;8.10;99.90;;;;;;5033189;28;20189;-82
2023/12/30 12:28:58;;;;;;;6.72;1.30;;;8.00;99.90;;;;;;5033284;28;20186;-82
2023/12/30 12:31:31;;;;;;;6.60;1.40;;;8.00;99.90;;;;;;5034233;28;20522;-81
2023/12/30 12:33:57;;;;;;;8.38;2.00;;;8.00;99.90;;;;;;5032917;28;20273;-82
2023/12/30 12:36:24;;;;;;;4.20;1.23;;;8.00;99.90;;;;;;5034189;28;20740;-80
2023/12/30 12:38:50;;;;;;;7.90;1.50;;;8.10;99.90;;;;;;5031978;28;20621;-80
2023/12/30 12:41:16;;;;;;;6.05;1.67;;;8.20;99.90;;;;;;5032729;28;20198;-81
2023/12/30 12:43:41;;;;;;;5.82;1.40;;;8.20;99.90;;;;;;5032017;28;20265;-80
2023/12/30 12:46:08;;;;;;;3.80;1.40;;;8.20;99.90;;;;;;5032513;28;20186;-81
2023/12/30 12:48:35;;;;;;;6.65;1.58;;;8.40;99.90;;;;;;5032854;28;20183;-81
2023/12/30 12:51:01;;;;;;;5.55;1.45;;;8.40;99.90;;;;;;5032962;28;20241;-81
2023/12/30 12:53:26;;;;;;;5.30;1.35;;;8.40;99.90;;;;;;5032697;28;20187;-80